createdAt,value
2022-11-22T00:00:48.274Z,7.00
2022-11-22T00:03:16.346Z,7.00
2022-11-22T00:05:45.923Z,7.00
2022-11-22T00:08:13.945Z,7.10
2022-11-22T00:10:41.878Z,7.10
2022-11-22T00:13:10.825Z,7.10
2022-11-22T00:15:38.788Z,7.10
2022-11-22T00:18:06.813Z,7.10
2022-11-22T00:20:35.528Z,7.10
2022-11-22T00:23:05.204Z,7.10
2022-11-22T00:25:33.332Z,7.10
2022-11-22T00:28:01.335Z,7.20
2022-11-22T00:30:29.365Z,7.20
2022-11-22T00:32:57.455Z,7.20
2022-11-22T00:35:25.395Z,7.30
2022-11-22T00:37:53.330Z,7.30
2022-11-22T00:40:22.854Z,7.30
2022-11-22T00:42:50.777Z,7.30
2022-11-22T00:45:18.832Z,7.30
2022-11-22T00:47:46.823Z,7.30
2022-11-22T00:50:14.917Z,7.30
2022-11-22T00:52:42.941Z,7.20
2022-11-22T00:55:12.838Z,7.30
2022-11-22T00:57:42.258Z,7.30
2022-11-22T01:00:11.366Z,7.30
2022-11-22T01:02:39.312Z,7.20
2022-11-22T01:05:07.872Z,7.20
2022-11-22T01:07:38.258Z,7.30
2022-11-22T01:10:07.332Z,7.30
2022-11-22T01:12:35.392Z,7.30
2022-11-22T01:15:05.961Z,7.30
2022-11-22T01:17:34.083Z,7.30
2022-11-22T01:20:04.458Z,7.30
2022-11-22T01:22:32.436Z,7.30
2022-11-22T01:25:00.483Z,7.30
2022-11-22T01:27:29.598Z,7.30
2022-11-22T01:29:57.613Z,7.40
2022-11-22T01:32:27.010Z,7.40
2022-11-22T01:34:54.931Z,7.40
2022-11-22T01:37:22.849Z,7.40
2022-11-22T01:39:50.797Z,7.40
2022-11-22T01:42:18.845Z,7.40
2022-11-22T01:44:49.468Z,7.50
2022-11-22T01:47:21.239Z,7.50
2022-11-22T01:49:55.555Z,7.50
2022-11-22T01:52:26.967Z,7.50
2022-11-22T01:54:59.441Z,7.40
2022-11-22T01:57:28.831Z,7.40
2022-11-22T02:00:02.008Z,7.40
2022-11-22T02:02:30.114Z,7.40
2022-11-22T02:05:03.673Z,7.40
2022-11-22T02:07:36.921Z,7.50
2022-11-22T02:10:06.044Z,7.50
2022-11-22T02:12:37.239Z,7.50
2022-11-22T02:15:07.214Z,7.60
2022-11-22T02:17:35.543Z,7.60
2022-11-22T02:20:05.839Z,7.60
2022-11-22T02:22:39.889Z,7.60
2022-11-22T02:25:15.566Z,7.70
2022-11-22T02:27:45.184Z,7.70
2022-11-22T02:30:14.861Z,7.70
2022-11-22T02:32:43.089Z,7.70
2022-11-22T02:35:19.074Z,7.70
2022-11-22T02:37:47.541Z,7.80
2022-11-22T02:40:18.135Z,7.70
2022-11-22T02:42:51.716Z,7.80
2022-11-22T02:45:19.716Z,7.80
2022-11-22T02:47:47.906Z,7.80
2022-11-22T02:50:16.025Z,7.80
2022-11-22T02:52:44.002Z,7.80
2022-11-22T02:55:12.272Z,7.80
2022-11-22T02:57:40.327Z,7.80
2022-11-22T03:00:11.703Z,7.90
2022-11-22T03:02:39.830Z,7.90
2022-11-22T03:05:08.531Z,7.90
2022-11-22T03:07:36.797Z,7.90
2022-11-22T03:10:05.513Z,7.90
2022-11-22T03:12:33.712Z,7.90
2022-11-22T03:15:01.733Z,7.80
2022-11-22T03:17:31.185Z,7.80
2022-11-22T03:19:59.388Z,7.90
2022-11-22T03:22:27.565Z,7.90
2022-11-22T03:24:55.634Z,7.90
2022-11-22T03:27:23.798Z,7.90
2022-11-22T03:29:53.724Z,7.80
2022-11-22T03:32:21.659Z,7.90
2022-11-22T03:34:51.059Z,7.90
2022-11-22T03:37:19.201Z,7.80
2022-11-22T03:39:48.243Z,7.80
2022-11-22T03:42:21.262Z,7.80
2022-11-22T03:44:50.068Z,7.80
2022-11-22T03:47:17.919Z,7.70
2022-11-22T03:49:46.021Z,7.70
2022-11-22T03:52:15.469Z,7.70
2022-11-22T03:54:45.833Z,7.70
2022-11-22T03:57:13.698Z,7.70
2022-11-22T03:59:41.704Z,7.70
2022-11-22T04:02:09.740Z,7.70
2022-11-22T04:04:37.740Z,7.70
2022-11-22T04:07:05.675Z,7.70
2022-11-22T04:09:35.161Z,7.70
2022-11-22T04:12:03.194Z,7.60
2022-11-22T04:14:48.434Z,7.60
2022-11-22T04:17:37.513Z,7.70
2022-11-22T04:20:23.878Z,7.70
2022-11-22T04:22:57.110Z,7.70
2022-11-22T04:25:26.399Z,7.70
2022-11-22T04:27:54.475Z,7.70
2022-11-22T04:30:42.665Z,7.70
2022-11-22T04:33:09.663Z,7.70
2022-11-22T04:35:37.806Z,7.60
2022-11-22T04:38:06.430Z,7.60
2022-11-22T04:40:36.247Z,7.60
2022-11-22T04:43:21.623Z,7.50
2022-11-22T04:45:49.561Z,7.60
2022-11-22T04:48:17.986Z,7.50
2022-11-22T04:51:04.108Z,7.50
2022-11-22T04:53:32.132Z,7.50
2022-11-22T04:56:02.135Z,7.50
2022-11-22T04:58:30.012Z,7.50
2022-11-22T05:00:57.979Z,7.40
2022-11-22T05:03:25.967Z,7.40
2022-11-22T05:05:54.274Z,7.40
2022-11-22T05:08:22.513Z,7.30
2022-11-22T05:10:59.687Z,7.30
2022-11-22T05:13:31.598Z,7.40
2022-11-22T05:16:01.266Z,7.30
2022-11-22T05:18:29.960Z,7.30
2022-11-22T05:21:00.189Z,7.20
2022-11-22T05:23:45.434Z,7.30
2022-11-22T05:26:13.268Z,7.30
2022-11-22T05:28:42.634Z,7.30
2022-11-22T05:31:12.110Z,7.40
2022-11-22T05:33:42.156Z,7.40
2022-11-22T05:36:10.482Z,7.40
2022-11-22T05:38:38.923Z,7.50
2022-11-22T05:41:08.637Z,7.50
2022-11-22T05:43:36.859Z,7.50
2022-11-22T05:46:10.867Z,7.60
2022-11-22T05:48:40.589Z,7.60
2022-11-22T05:51:10.428Z,7.60
2022-11-22T05:53:39.076Z,7.60
2022-11-22T05:56:10.237Z,7.70
2022-11-22T05:58:38.244Z,7.70
2022-11-22T06:01:07.591Z,7.70
2022-11-22T06:03:39.370Z,7.70
2022-11-22T06:06:08.016Z,7.70
2022-11-22T06:08:38.577Z,7.70
2022-11-22T06:11:07.814Z,7.60
2022-11-22T06:13:36.643Z,7.70
2022-11-22T06:16:05.142Z,7.60
2022-11-22T06:18:33.468Z,7.60
2022-11-22T06:21:04.596Z,7.60
2022-11-22T06:23:32.803Z,7.60
2022-11-22T06:26:01.975Z,7.60
2022-11-22T06:28:31.634Z,7.50
2022-11-22T06:31:03.377Z,7.50
2022-11-22T06:33:32.350Z,7.50
2022-11-22T06:36:06.880Z,7.50
2022-11-22T06:38:35.417Z,7.50
2022-11-22T06:41:04.693Z,7.50
2022-11-22T06:43:33.623Z,7.50
2022-11-22T06:46:03.390Z,7.50
2022-11-22T06:48:35.009Z,7.50
2022-11-22T06:51:06.232Z,7.50
2022-11-22T06:53:51.011Z,7.50
2022-11-22T06:56:20.956Z,7.50
2022-11-22T06:58:50.408Z,7.50
2022-11-22T07:01:20.101Z,7.50
2022-11-22T07:03:49.995Z,7.50
2022-11-22T07:06:22.607Z,7.60
2022-11-22T07:08:50.485Z,7.60
2022-11-22T07:11:20.529Z,7.60
2022-11-22T07:13:49.353Z,7.50
2022-11-22T07:16:19.395Z,7.60
2022-11-22T07:18:48.098Z,7.50
2022-11-22T07:21:17.657Z,7.50
2022-11-22T07:23:51.117Z,7.50
2022-11-22T07:26:20.732Z,7.60
2022-11-22T07:28:49.436Z,7.60
2022-11-22T07:31:18.738Z,7.60
2022-11-22T07:33:47.160Z,7.70
2022-11-22T07:36:16.667Z,7.60
2022-11-22T07:38:46.348Z,7.70
2022-11-22T07:41:14.478Z,7.70
2022-11-22T07:43:43.043Z,7.70
2022-11-22T07:46:18.685Z,7.70
2022-11-22T07:48:46.611Z,7.70
2022-11-22T07:51:14.516Z,7.80
2022-11-22T07:53:42.436Z,7.80
2022-11-22T07:56:12.123Z,7.80
2022-11-22T07:58:40.021Z,7.80
2022-11-22T08:01:09.617Z,7.80
2022-11-22T08:03:38.606Z,7.90
2022-11-22T08:06:08.626Z,7.90
2022-11-22T08:08:42.919Z,7.90
2022-11-22T08:11:12.910Z,7.90
2022-11-22T08:13:47.057Z,7.80
2022-11-22T08:16:18.831Z,7.80
2022-11-22T08:18:50.610Z,7.90
2022-11-22T08:21:20.006Z,7.80
2022-11-22T08:23:48.849Z,7.90
2022-11-22T08:26:21.005Z,7.90
2022-11-22T08:28:50.852Z,7.90
2022-11-22T08:31:24.831Z,8.00
2022-11-22T08:33:55.724Z,8.00
2022-11-22T08:36:23.995Z,8.00
2022-11-22T08:38:51.942Z,8.00
2022-11-22T08:41:23.566Z,8.00
2022-11-22T08:43:51.784Z,8.00
2022-11-22T08:46:20.142Z,8.00
2022-11-22T08:48:52.718Z,7.90
2022-11-22T08:51:20.796Z,7.90
2022-11-22T08:53:50.646Z,7.90
2022-11-22T08:56:18.600Z,7.90
2022-11-22T08:58:53.878Z,8.00
2022-11-22T09:01:23.535Z,8.00
2022-11-22T09:03:51.794Z,8.10
2022-11-22T09:09:36.284Z,8.30
2022-11-22T09:11:56.762Z,8.30
2022-11-22T09:14:26.082Z,8.40
2022-11-22T09:16:54.002Z,8.40
2022-11-22T09:19:21.967Z,8.40
2022-11-22T09:21:49.918Z,8.40
2022-11-22T09:24:18.017Z,8.40
2022-11-22T09:26:46.087Z,8.40
2022-11-22T09:29:15.596Z,8.40
2022-11-22T09:31:44.929Z,8.40
2022-11-22T09:34:12.992Z,8.40
2022-11-22T09:36:43.742Z,8.30
2022-11-22T09:39:11.785Z,8.30
2022-11-22T09:42:22.274Z,8.30
2022-11-22T09:45:32.059Z,8.30
2022-11-22T09:48:09.938Z,8.40
2022-11-22T09:50:49.813Z,8.50
2022-11-22T09:53:24.037Z,8.50
2022-11-22T09:55:57.279Z,8.50
2022-11-22T09:58:31.768Z,8.70
2022-11-22T10:01:04.923Z,8.70
2022-11-22T10:03:43.319Z,8.70
2022-11-22T10:06:20.206Z,8.80
2022-11-22T10:08:58.621Z,8.80
2022-11-22T10:11:36.808Z,8.90
2022-11-22T10:14:13.371Z,8.90
2022-11-22T10:16:48.933Z,8.90
2022-11-22T10:19:24.775Z,9.00
2022-11-22T10:21:52.910Z,9.00
2022-11-22T10:24:22.926Z,9.00
2022-11-22T10:26:53.491Z,9.10
2022-11-22T10:29:30.524Z,9.10
2022-11-22T10:32:05.990Z,9.10
2022-11-22T10:34:53.821Z,9.10
2022-11-22T10:37:29.575Z,9.10
2022-11-22T10:40:06.345Z,9.10
2022-11-22T10:42:58.762Z,9.10
2022-11-22T10:45:36.272Z,9.10
2022-11-22T10:48:17.808Z,9.10
2022-11-22T10:51:05.539Z,9.20
2022-11-22T10:53:45.973Z,9.30
2022-11-22T10:56:21.353Z,9.30
2022-11-22T10:59:04.954Z,9.40
2022-11-22T11:01:42.732Z,9.30
2022-11-22T11:04:15.024Z,9.30
2022-11-22T11:12:33.796Z,9.20
2022-11-22T11:15:06.137Z,9.30
2022-11-22T11:17:38.991Z,9.30
2022-11-22T11:20:20.917Z,9.30
2022-11-22T11:25:40.838Z,9.30
2022-11-22T11:28:12.859Z,9.30
2022-11-22T11:30:43.600Z,9.40
2022-11-22T11:33:20.024Z,9.40
2022-11-22T11:35:48.607Z,9.60
2022-11-22T11:38:33.379Z,9.60
2022-11-22T11:41:18.708Z,9.60
2022-11-22T11:43:47.274Z,9.60
2022-11-22T11:46:20.072Z,9.70
2022-11-22T11:48:50.513Z,9.80
2022-11-22T11:51:22.236Z,9.90
2022-11-22T11:54:06.832Z,10.20
2022-11-22T11:56:47.230Z,10.40
2022-11-22T11:59:19.947Z,10.40
2022-11-22T12:01:58.983Z,10.30
2022-11-22T12:04:30.907Z,10.30
2022-11-22T12:07:07.045Z,10.30
2022-11-22T12:09:47.062Z,10.40
2022-11-22T12:12:38.589Z,10.20
2022-11-22T12:15:15.848Z,10.20
2022-11-22T12:17:51.625Z,10.20
2022-11-22T12:20:25.674Z,10.20
2022-11-22T12:23:07.585Z,10.20
2022-11-22T12:25:40.038Z,10.20
2022-11-22T12:28:20.032Z,10.20
2022-11-22T12:30:53.886Z,10.20
2022-11-22T12:33:26.240Z,10.10
2022-11-22T12:35:56.676Z,10.00
2022-11-22T12:38:28.981Z,10.00
2022-11-22T12:41:01.997Z,10.10
2022-11-22T12:43:36.266Z,10.10
2022-11-22T12:46:10.814Z,10.00
2022-11-22T12:48:48.889Z,10.00
2022-11-22T12:51:25.747Z,10.00
2022-11-22T12:53:56.755Z,9.90
2022-11-22T12:56:33.369Z,10.00
2022-11-22T12:59:15.200Z,10.00
2022-11-22T13:01:49.214Z,10.10
2022-11-22T13:04:22.299Z,10.30
2022-11-22T13:06:58.085Z,10.20
2022-11-22T13:09:31.357Z,10.20
2022-11-22T13:12:05.315Z,10.10
2022-11-22T13:14:37.541Z,10.10
2022-11-22T13:17:08.430Z,10.00
2022-11-22T13:19:46.991Z,10.00
2022-11-22T13:22:23.608Z,9.90
2022-11-22T13:25:13.224Z,9.90
2022-11-22T13:27:48.441Z,9.90
2022-11-22T13:30:21.762Z,9.90
2022-11-22T13:32:53.925Z,9.80
2022-11-22T13:35:29.295Z,9.80
2022-11-22T13:37:59.169Z,9.70
2022-11-22T13:40:30.690Z,9.70
2022-11-22T13:43:49.953Z,9.70
2022-11-22T13:46:51.829Z,9.70
2022-11-22T13:49:46.625Z,9.60
2022-11-22T13:52:48.549Z,9.60
2022-11-22T13:55:40.362Z,9.60
2022-11-22T13:58:52.836Z,9.60
2022-11-22T14:02:03.341Z,9.50
2022-11-22T14:04:40.731Z,9.40
2022-11-22T14:07:27.175Z,9.30
2022-11-22T14:09:57.209Z,9.40
2022-11-22T14:13:04.072Z,9.40
2022-11-22T14:15:53.430Z,9.50
2022-11-22T14:18:41.383Z,9.40
2022-11-22T14:21:14.989Z,9.20
2022-11-22T14:23:57.286Z,9.20
2022-11-22T14:26:33.386Z,9.20
2022-11-22T14:29:18.806Z,9.20
2022-11-22T14:31:55.483Z,9.20
2022-11-22T14:34:28.792Z,9.20
2022-11-22T14:37:36.440Z,9.20
2022-11-22T14:40:36.492Z,9.20
2022-11-22T14:43:29.134Z,9.10
2022-11-22T14:46:01.382Z,9.00
2022-11-22T14:48:36.040Z,8.90
2022-11-22T14:51:10.538Z,8.90
2022-11-22T14:53:44.611Z,8.80
2022-11-22T14:56:18.053Z,8.80
2022-11-22T14:58:57.173Z,8.70
2022-11-22T15:01:54.821Z,8.70
2022-11-22T15:09:16.807Z,8.70
2022-11-22T15:09:24.630Z,8.60
2022-11-22T15:11:19.748Z,8.50
2022-11-22T15:14:11.314Z,8.50
2022-11-22T15:57:29.544Z,8.00
2022-11-22T15:59:59.464Z,8.00
2022-11-22T16:02:31.494Z,8.00
2022-11-22T16:06:06.351Z,8.00
2022-11-22T16:07:52.907Z,8.00
2022-11-22T16:10:23.179Z,7.90
2022-11-22T16:12:52.311Z,7.90
2022-11-22T16:15:29.228Z,7.90
2022-11-22T16:18:08.607Z,7.80
2022-11-22T16:20:37.334Z,7.80
2022-11-22T16:23:21.733Z,7.80
2022-11-22T16:25:53.785Z,7.80
2022-11-22T16:28:35.868Z,7.80
2022-11-22T16:31:08.381Z,7.70
2022-11-22T16:33:36.280Z,7.70
2022-11-22T16:36:06.922Z,7.70
2022-11-22T16:38:34.994Z,7.70
2022-11-22T16:41:03.024Z,7.70
2022-11-22T16:43:35.930Z,7.70
2022-11-22T16:46:05.519Z,7.70
2022-11-22T16:48:33.896Z,7.70
2022-11-22T16:51:05.575Z,7.70
2022-11-22T16:53:41.986Z,7.70
2022-11-22T16:56:15.936Z,7.70
2022-11-22T16:58:44.471Z,7.70
2022-11-22T17:01:16.308Z,7.70
2022-11-22T17:03:45.456Z,7.70
2022-11-22T17:06:18.678Z,7.70
2022-11-22T17:08:47.044Z,7.70
2022-11-22T17:11:17.568Z,7.70
2022-11-22T17:13:46.118Z,7.80
2022-11-22T17:16:17.737Z,7.70
2022-11-22T17:18:46.758Z,7.80
2022-11-22T17:21:19.273Z,7.80
2022-11-22T17:23:48.327Z,7.70
2022-11-22T17:26:19.257Z,7.70
2022-11-22T17:28:50.573Z,7.60
2022-11-22T17:31:22.088Z,7.60
2022-11-22T17:33:51.871Z,7.60
2022-11-22T17:36:25.456Z,7.60
2022-11-22T17:38:53.630Z,7.60
2022-11-22T17:41:21.790Z,7.60
2022-11-22T17:43:50.313Z,7.50
2022-11-22T17:46:19.954Z,7.50
2022-11-22T17:48:55.892Z,7.50
2022-11-22T17:51:29.454Z,7.50
2022-11-22T17:53:58.179Z,7.60
2022-11-22T17:56:30.475Z,7.50
2022-11-22T17:58:58.489Z,7.50
2022-11-22T18:01:30.640Z,7.50
2022-11-22T18:03:58.814Z,7.60
2022-11-22T18:06:27.347Z,7.50
2022-11-22T18:08:55.421Z,7.50
2022-11-22T18:11:23.578Z,7.50
2022-11-22T18:13:57.438Z,7.50
2022-11-22T18:16:28.882Z,7.50
2022-11-22T18:18:58.402Z,7.50
2022-11-22T18:21:29.274Z,7.50
2022-11-22T18:23:58.230Z,7.50
2022-11-22T18:26:45.159Z,7.50
2022-11-22T18:29:41.209Z,7.40
2022-11-22T18:32:04.614Z,7.40
2022-11-22T18:34:32.634Z,7.40
2022-11-22T18:37:02.989Z,7.40
2022-11-22T18:39:33.542Z,7.30
2022-11-22T18:42:02.060Z,7.30
2022-11-22T18:44:30.055Z,7.30
2022-11-22T18:46:58.241Z,7.30
2022-11-22T18:49:27.717Z,7.30
2022-11-22T18:51:56.100Z,7.20
2022-11-22T18:54:24.400Z,7.20
2022-11-22T18:56:53.045Z,7.10
2022-11-22T18:59:23.234Z,7.10
2022-11-22T19:01:51.273Z,7.10
2022-11-22T19:04:20.637Z,7.10
2022-11-22T19:06:50.134Z,7.10
2022-11-22T19:09:18.623Z,7.10
2022-11-22T19:11:46.834Z,7.10
2022-11-22T19:14:15.068Z,7.00
2022-11-22T19:16:43.229Z,7.00
2022-11-22T19:19:15.254Z,7.00
2022-11-22T19:21:43.391Z,7.00
2022-11-22T19:24:13.145Z,7.00
2022-11-22T19:26:41.295Z,6.90
2022-11-22T19:29:09.616Z,6.90
2022-11-22T19:31:37.891Z,6.90
2022-11-22T19:34:07.334Z,6.80
2022-11-22T19:36:37.800Z,6.80
2022-11-22T19:39:07.592Z,6.80
2022-11-22T19:41:37.552Z,6.80
2022-11-22T19:44:05.785Z,6.70
2022-11-22T19:46:33.910Z,6.70
2022-11-22T19:49:02.423Z,6.70
2022-11-22T19:51:32.000Z,6.60
2022-11-22T19:54:02.307Z,6.60
2022-11-22T19:56:32.552Z,6.60
2022-11-22T19:59:03.927Z,6.50
2022-11-22T20:01:33.953Z,6.50
2022-11-22T20:04:04.520Z,6.40
2022-11-22T20:06:33.342Z,6.30
2022-11-22T20:09:02.553Z,6.30
2022-11-22T20:11:30.583Z,6.30
2022-11-22T20:14:01.588Z,6.30
2022-11-22T20:16:32.137Z,6.20
2022-11-22T20:19:01.604Z,6.20
2022-11-22T20:21:31.943Z,6.10
2022-11-22T20:24:00.593Z,6.10
2022-11-22T20:26:29.504Z,6.00
2022-11-22T20:28:59.371Z,6.00
2022-11-22T20:31:28.834Z,6.00
2022-11-22T20:34:00.183Z,6.00
2022-11-22T20:36:30.060Z,6.00
2022-11-22T20:38:59.300Z,6.00
2022-11-22T20:41:31.614Z,6.00
2022-11-22T20:44:09.521Z,6.00
2022-11-22T20:47:47.432Z,6.00
2022-11-22T20:54:43.476Z,5.90
2022-11-22T20:57:13.994Z,5.90
2022-11-22T20:59:42.266Z,5.80
2022-11-22T21:02:11.303Z,5.80
2022-11-22T21:04:39.460Z,5.80
2022-11-22T21:07:09.291Z,5.70
2022-11-22T21:09:37.586Z,5.80
2022-11-22T21:12:08.196Z,5.70
2022-11-22T21:14:36.239Z,5.70
2022-11-22T21:17:30.543Z,5.80
2022-11-22T21:19:52.620Z,5.80
2022-11-22T21:22:30.185Z,5.80
2022-11-22T21:24:59.847Z,5.80
2022-11-22T21:27:27.918Z,5.80
2022-11-22T21:29:58.381Z,5.80
2022-11-22T21:32:26.728Z,5.80
2022-11-22T21:34:54.805Z,5.80
2022-11-22T21:37:24.551Z,5.80
2022-11-22T21:39:52.658Z,5.80
2022-11-22T21:42:20.796Z,5.80
2022-11-22T21:44:48.853Z,5.80
2022-11-22T21:47:17.109Z,5.80
2022-11-22T21:49:45.290Z,5.80
2022-11-22T21:52:13.792Z,5.80
2022-11-22T21:54:43.358Z,5.70
2022-11-22T21:57:11.426Z,5.70
2022-11-22T21:59:39.496Z,5.70
2022-11-22T22:02:07.743Z,5.70
2022-11-22T22:04:35.871Z,5.70
2022-11-22T22:07:04.225Z,5.80
2022-11-22T22:09:32.690Z,5.70
2022-11-22T22:12:02.326Z,5.80
2022-11-22T22:14:30.250Z,5.80
2022-11-22T22:16:58.189Z,5.90
2022-11-22T22:19:26.128Z,5.90
2022-11-22T22:21:54.071Z,5.90
2022-11-22T22:24:22.061Z,6.00
2022-11-22T22:26:50.124Z,6.00
2022-11-22T22:29:19.675Z,6.00
2022-11-22T22:31:47.693Z,6.10
2022-11-22T22:34:18.149Z,6.10
2022-11-22T22:36:46.496Z,6.20
2022-11-22T22:39:14.503Z,6.30
2022-11-22T22:41:45.421Z,6.30
2022-11-22T22:44:13.343Z,6.40
2022-11-22T22:46:43.949Z,6.50
2022-11-22T22:49:11.820Z,6.50
2022-11-22T22:51:41.631Z,6.60
2022-11-22T22:54:11.146Z,6.60
2022-11-22T22:56:39.069Z,6.60
2022-11-22T22:59:09.286Z,6.60
2022-11-22T23:01:37.894Z,6.60
2022-11-22T23:04:08.775Z,6.60
2022-11-22T23:06:39.173Z,6.50
2022-11-22T23:09:09.988Z,6.50
2022-11-22T23:11:56.102Z,6.50
2022-11-22T23:14:27.976Z,6.50
2022-11-22T23:16:58.228Z,6.50
2022-11-22T23:19:31.954Z,6.50
2022-11-22T23:22:00.374Z,6.50
2022-11-22T23:24:31.044Z,6.60
2022-11-22T23:26:59.508Z,6.60
2022-11-22T23:29:27.682Z,6.60
2022-11-22T23:31:55.861Z,6.60
2022-11-22T23:34:24.020Z,6.70
2022-11-22T23:36:53.491Z,6.70
2022-11-22T23:39:21.513Z,6.70
2022-11-22T23:41:49.570Z,6.70
2022-11-22T23:44:17.673Z,6.80
2022-11-22T23:46:45.660Z,6.80
2022-11-22T23:49:13.689Z,6.80
2022-11-22T23:51:41.731Z,6.90
2022-11-22T23:54:11.530Z,6.90
2022-11-22T23:56:39.551Z,6.90
2022-11-22T23:59:07.556Z,6.90
